This is the latest recevied weather packets stored in our database for station/object BMCB-21. If no packets are shown the sender has not sent any weather packets the latest 10 day(s).
| Time | Temp. | Humidity | Pressure | Rain* | Wind** | Luminosity | Snow |
|---|---|---|---|---|---|---|---|
| 1777359622 | 10° C | 70% | 1019.1 hPa | 0 mm | - | 255 W/m² | - |
| 1777346422 | 8.89° C | 64% | 1018.9 hPa | 0 mm | - | 0 W/m² | - |
| 1777332643 | 11.11° C | 58% | 1019.3 hPa | 0 mm | - | 0 W/m² | - |
| 1777328445 | 9.44° C | 65% | 1019.3 hPa | 0 mm | - | 0 W/m² | - |
| 1777320048 | 10.56° C | 65% | 1019.4 hPa | 0 mm | - | 0 W/m² | - |
| 1777318248 | 12.22° C | 57% | 1019.2 hPa | 0 mm | - | 0 W/m² | - |
| 1777317648 | 12.78° C | 53% | 1019.2 hPa | 0 mm | - | 0 W/m² | - |
| 1777314645 | 15° C | 49% | 1019 hPa | 0 mm | - | 14 W/m² | - |
| 1777310447 | 17.78° C | 38% | 1019.2 hPa | 0 mm | - | 75 W/m² | - |
| 1777308646 | 18.33° C | 35% | 1019.3 hPa | 0 mm | - | 153 W/m² | - |
| 1777306249 | 18.89° C | 33% | 1019.5 hPa | 0 mm | - | 207 W/m² | - |
| 1777296646 | 18.89° C | 37% | 1021 hPa | 0 mm | - | 507 W/m² | - |
| 1777292417 | 18.33° C | 37% | 1021.5 hPa | 0 mm | - | 571 W/m² | - |
| 1777282222 | 15° C | 49% | 1022.7 hPa | 0 mm | - | 377 W/m² | - |
| 1777279246 | 13.33° C | 55% | 1023 hPa | 0 mm | - | 343 W/m² | - |
| 1777275023 | 9.44° C | 78% | 1022.9 hPa | 0 mm | - | 190 W/m² | - |
| 1777274422 | 8.33° C | 82% | 1022.9 hPa | 0 mm | - | 173 W/m² | - |
| 1777269620 | 3.89° C | 95% | 1023.2 hPa | 0 mm | - | 65 W/m² | - |
| 1777267246 | 2.78° C | 97% | 1023.2 hPa | 0 mm | - | 68 W/m² | - |
| 1777265422 | 1.11° C | 96% | 1023 hPa | 0 mm | - | 10 W/m² | - |
| 1777264222 | 0.56° C | 96% | 1022.9 hPa | 0 mm | - | 0 W/m² | - |
| 1777261822 | 1.11° C | 96% | 1022.9 hPa | 0 mm | - | 0 W/m² | - |
| 1777255838 | 2.22° C | 94% | 1022.8 hPa | 0 mm | - | 0 W/m² | - |
| 1777252824 | 2.78° C | 93% | 1023.1 hPa | 0 mm | - | 0 W/m² | - |
| 1777248046 | 3.89° C | 89% | 1023.5 hPa | 0 mm | - | 0 W/m² | - |
* Rain latest hour (hover to see other rain measurements)
** Current wind speed in m/s (hover to see current wind gust speed)